Aviation Digital Data Service (ADDS)

Output produced by METARs form (0536 UTC 26 May 2015)
found at http://aviationweather.gov/adds/metars/
 
KLBE 260528Z 2606/2706 VRB04KT P6SM BKN100 
     FM260900 VRB04KT P6SM VCSH BKN035 
     FM261700 22008KT P6SM VCTS BKN040CB 
     FM270300 19006KT P6SM VCSH BKN100